Terminal Aerodrome Forecast
Issued by NWS Portland, OR

Home | Current Version | Previous Version | Text Only | Print | Product List | Glossary On
Versions: 1 2 3 4 5 6 7 8 9 10 11 12 13 14 15 16 17 18 19 20 21 22 23 24 25 26 27 28 29 30 31 32 33 34 35 36 37 38 39 40 41 42 43 44 45
163
FTUS46 KPQR 072327
TAFHIO
TAF
KHIO 072327Z 0800/0824 07018G25KT P6SM OVC250
     FM080600 10017G24KT P6SM OVC100
     FM081700 09017G24KT 4SM -SN BR OVC025
     FM081900 09019G27KT 2SM -SN BR OVC007=

USA.gov is the U.S. government's official web portal to all federal, state and local government web resources and services.